createdAt,value
2023-04-21T00:01:27.182Z,14.20
2023-04-21T00:03:55.643Z,14.50
2023-04-21T00:06:23.484Z,14.77
2023-04-21T00:08:51.105Z,14.90
2023-04-21T00:11:20.712Z,14.23
2023-04-21T00:13:47.629Z,14.83
2023-04-21T00:16:14.560Z,16.67
2023-04-21T00:18:43.323Z,14.03
2023-04-21T00:21:10.573Z,14.17
2023-04-21T00:23:37.476Z,13.43
2023-04-21T00:26:04.630Z,13.87
2023-04-21T00:28:32.093Z,13.47
2023-04-21T00:30:59.877Z,13.87
2023-04-21T00:33:28.605Z,13.53
2023-04-21T00:35:59.070Z,13.77
2023-04-21T00:38:27.683Z,14.97
2023-04-21T00:40:54.594Z,14.73
2023-04-21T00:43:21.822Z,14.27
2023-04-21T00:45:50.070Z,14.80
2023-04-21T00:48:17.678Z,14.60
2023-04-21T00:50:45.429Z,13.67
2023-04-21T00:53:15.877Z,13.60
2023-04-21T00:55:43.028Z,14.00
2023-04-21T00:58:10.001Z,15.30
2023-04-21T01:00:38.351Z,14.87
2023-04-21T01:03:06.798Z,14.60
2023-04-21T01:05:34.213Z,14.80
2023-04-21T01:08:02.366Z,15.70
2023-04-21T01:10:30.047Z,15.30
2023-04-21T01:12:56.993Z,14.40
2023-04-21T01:15:28.443Z,17.97
2023-04-21T01:17:55.427Z,14.97
2023-04-21T01:20:22.370Z,15.87
2023-04-21T01:22:51.271Z,14.70
2023-04-21T01:25:18.959Z,15.63
2023-04-21T01:27:46.065Z,16.20
2023-04-21T01:30:14.245Z,14.60
2023-04-21T01:32:42.787Z,14.90
2023-04-21T01:35:14.483Z,14.63
2023-04-21T01:37:44.720Z,14.47
2023-04-21T01:40:16.476Z,13.80
2023-04-21T01:42:45.975Z,13.83
2023-04-21T01:45:18.238Z,13.00
2023-04-21T01:47:50.882Z,13.07
2023-04-21T01:50:22.851Z,13.57
2023-04-21T01:52:52.942Z,12.37
2023-04-21T01:55:23.423Z,12.87
2023-04-21T01:57:55.266Z,14.97
2023-04-21T02:00:29.792Z,13.20
2023-04-21T02:02:59.343Z,13.90
2023-04-21T02:05:29.184Z,13.00
2023-04-21T02:07:58.933Z,13.20
2023-04-21T02:10:27.800Z,13.30
2023-04-21T02:12:56.777Z,14.57
2023-04-21T02:15:25.228Z,13.20
2023-04-21T02:17:56.925Z,14.63
2023-04-21T02:20:30.982Z,13.83
2023-04-21T02:22:59.097Z,14.63
2023-04-21T02:25:33.104Z,13.70
2023-04-21T02:28:05.445Z,13.70
2023-04-21T02:30:34.376Z,14.30
2023-04-21T02:33:05.568Z,12.53
2023-04-21T02:35:35.974Z,13.00
2023-04-21T02:38:10.752Z,12.63
2023-04-21T02:40:40.817Z,12.67
2023-04-21T02:43:16.047Z,12.60
2023-04-21T02:45:44.740Z,12.90
2023-04-21T02:48:14.808Z,13.73
2023-04-21T02:50:50.334Z,14.20
2023-04-21T02:53:19.630Z,13.40
2023-04-21T02:55:47.054Z,12.40
2023-04-21T02:58:18.223Z,12.90
2023-04-21T03:00:45.974Z,13.70
2023-04-21T03:03:20.267Z,13.27
2023-04-21T03:05:48.787Z,13.70
2023-04-21T03:08:19.784Z,13.50
2023-04-21T03:10:52.573Z,12.87
2023-04-21T03:13:26.118Z,13.17
2023-04-21T03:15:57.494Z,13.00
2023-04-21T03:18:27.269Z,12.73
2023-04-21T03:21:00.231Z,12.47
2023-04-21T03:23:30.684Z,13.70
2023-04-21T03:25:59.902Z,12.40
2023-04-21T03:28:30.775Z,13.07
2023-04-21T03:33:45.245Z,12.03
2023-04-21T03:36:18.041Z,13.23
2023-04-21T03:38:51.430Z,13.47
2023-04-21T03:41:18.787Z,13.20
2023-04-21T03:43:47.010Z,14.10
2023-04-21T03:46:23.030Z,13.57
2023-04-21T03:48:50.448Z,14.30
2023-04-21T03:51:17.819Z,13.60
2023-04-21T03:53:44.770Z,13.10
2023-04-21T03:56:16.672Z,14.23
2023-04-21T03:58:43.570Z,13.97
2023-04-21T04:01:10.478Z,14.27
2023-04-21T04:03:37.584Z,13.90
2023-04-21T04:06:04.989Z,14.27
2023-04-21T04:08:33.739Z,14.30
2023-04-21T04:11:00.738Z,13.50
2023-04-21T04:13:29.457Z,13.60
2023-04-21T04:15:56.456Z,13.67
2023-04-21T04:18:23.470Z,14.00
2023-04-21T04:20:50.483Z,13.97
2023-04-21T04:23:17.487Z,14.17
2023-04-21T04:25:44.875Z,14.50
2023-04-21T04:28:12.709Z,13.93
2023-04-21T04:30:39.766Z,16.87
2023-04-21T04:33:06.930Z,14.40
2023-04-21T04:35:34.050Z,15.17
2023-04-21T04:38:02.458Z,14.30
2023-04-21T04:40:30.464Z,14.57
2023-04-21T04:42:58.142Z,14.57
2023-04-21T04:45:27.144Z,16.27
2023-04-21T04:47:54.152Z,14.67
2023-04-21T04:50:21.389Z,14.03
2023-04-21T04:52:49.772Z,14.70
2023-04-21T04:55:18.843Z,14.20
2023-04-21T04:57:46.149Z,14.53
2023-04-21T05:00:14.794Z,13.73
2023-04-21T05:02:42.116Z,14.13
2023-04-21T05:05:09.313Z,13.60
2023-04-21T05:07:36.925Z,15.30
2023-04-21T05:10:04.778Z,13.50
2023-04-21T05:12:32.745Z,13.50
2023-04-21T05:14:59.714Z,13.73
2023-04-21T05:17:27.361Z,15.10
2023-04-21T05:19:54.527Z,13.43
2023-04-21T05:22:21.480Z,15.33
2023-04-21T05:24:48.654Z,17.10
2023-04-21T05:27:15.718Z,15.17
2023-04-21T05:29:42.638Z,16.70
2023-04-21T05:32:12.343Z,14.60
2023-04-21T05:34:40.175Z,14.83
2023-04-21T05:37:07.183Z,15.23
2023-04-21T05:39:34.108Z,15.07
2023-04-21T05:42:02.435Z,14.10
2023-04-21T05:44:31.411Z,15.37
2023-04-21T05:46:58.811Z,14.70
2023-04-21T05:49:25.974Z,15.30
2023-04-21T05:51:53.377Z,14.00
2023-04-21T05:54:20.630Z,14.03
2023-04-21T05:56:48.475Z,15.40
2023-04-21T05:59:15.899Z,15.20
2023-04-21T06:01:44.131Z,15.53
2023-04-21T06:04:11.375Z,18.80
2023-04-21T06:06:38.779Z,19.47
2023-04-21T06:09:06.515Z,20.80
2023-04-21T06:11:33.570Z,19.73
2023-04-21T06:14:02.058Z,19.47
2023-04-21T06:16:32.208Z,19.27
2023-04-21T06:19:00.392Z,17.77
2023-04-21T06:21:30.169Z,17.47
2023-04-21T06:23:57.192Z,16.53
2023-04-21T06:26:24.241Z,16.13
2023-04-21T06:28:51.415Z,17.87
2023-04-21T06:31:19.871Z,21.10
2023-04-21T06:33:48.114Z,15.27
2023-04-21T06:36:16.202Z,15.97
2023-04-21T06:38:45.970Z,16.13
2023-04-21T06:41:14.705Z,16.13
2023-04-21T06:43:42.184Z,15.73
2023-04-21T06:46:09.360Z,15.77
2023-04-21T06:48:38.410Z,14.20
2023-04-21T06:51:05.454Z,16.43
2023-04-21T06:53:32.564Z,13.40
2023-04-21T06:55:59.556Z,15.07
2023-04-21T06:58:26.658Z,12.50
2023-04-21T07:00:53.689Z,12.87
2023-04-21T07:03:21.030Z,12.40
2023-04-21T07:05:48.303Z,11.40
2023-04-21T07:08:15.328Z,14.07
2023-04-21T07:10:42.356Z,10.60
2023-04-21T07:13:10.071Z,10.20
2023-04-21T07:15:37.213Z,10.93
2023-04-21T07:18:04.403Z,12.10
2023-04-21T07:20:31.908Z,10.50
2023-04-21T07:22:58.857Z,9.40
2023-04-21T07:25:26.234Z,11.80
2023-04-21T07:27:53.848Z,9.93
2023-04-21T07:30:20.955Z,10.17
2023-04-21T07:32:47.916Z,8.50
2023-04-21T07:35:17.739Z,10.87
2023-04-21T07:37:45.316Z,8.77
2023-04-21T07:40:12.844Z,8.77
2023-04-21T07:42:40.840Z,9.80
2023-04-21T07:45:08.259Z,9.93
2023-04-21T07:47:35.352Z,10.57
2023-04-21T07:50:02.548Z,8.60
2023-04-21T07:52:29.552Z,9.47
2023-04-21T07:54:56.524Z,7.83
2023-04-21T07:57:23.452Z,8.33
2023-04-21T07:59:50.490Z,9.00
2023-04-21T08:02:18.141Z,8.17
2023-04-21T08:04:45.214Z,8.37
2023-04-21T08:07:18.461Z,10.27
2023-04-21T08:09:45.989Z,8.03
2023-04-21T08:12:15.326Z,10.30
2023-04-21T08:14:44.008Z,8.53
2023-04-21T08:17:11.079Z,8.50
2023-04-21T08:19:38.008Z,8.70
2023-04-21T08:22:06.630Z,8.10
2023-04-21T08:24:34.815Z,13.07
2023-04-21T08:27:05.458Z,8.83
2023-04-21T08:29:32.946Z,7.87
2023-04-21T08:32:00.013Z,9.10
2023-04-21T08:34:27.872Z,9.57
2023-04-21T08:36:55.109Z,7.50
2023-04-21T08:39:23.145Z,8.87
2023-04-21T08:41:51.897Z,7.83
2023-04-21T08:44:19.725Z,10.73
2023-04-21T08:46:52.872Z,9.00
2023-04-21T08:49:21.643Z,8.23
2023-04-21T08:51:48.835Z,7.97
2023-04-21T08:54:17.541Z,7.83
2023-04-21T08:56:44.430Z,8.30
2023-04-21T08:59:11.449Z,7.37
2023-04-21T09:02:09.955Z,7.87
2023-04-21T09:04:42.066Z,6.50
2023-04-21T09:07:09.547Z,7.70
2023-04-21T09:09:57.326Z,11.43
2023-04-21T09:12:24.856Z,9.37
2023-04-21T09:14:51.832Z,11.83
2023-04-21T09:17:21.124Z,10.07
2023-04-21T09:19:48.983Z,9.07
2023-04-21T09:22:17.922Z,7.63
2023-04-21T09:24:47.096Z,8.97
2023-04-21T09:27:16.871Z,10.83
2023-04-21T09:29:50.836Z,9.03
2023-04-21T09:32:22.133Z,11.63
2023-04-21T09:34:49.890Z,12.30
2023-04-21T09:37:19.166Z,7.60
2023-04-21T09:40:03.616Z,6.57
2023-04-21T09:42:35.486Z,9.53
2023-04-21T09:47:40.167Z,7.20
2023-04-21T09:50:12.899Z,8.00
2023-04-21T09:52:40.464Z,10.20
2023-04-21T09:55:13.710Z,7.77
2023-04-21T09:57:44.972Z,9.90
2023-04-21T10:00:13.855Z,9.57
2023-04-21T10:02:45.228Z,7.83
2023-04-21T10:05:13.196Z,8.53
2023-04-21T10:07:42.815Z,9.13
2023-04-21T10:10:22.875Z,10.67
2023-04-21T10:12:51.230Z,8.10
2023-04-21T10:15:36.075Z,6.97
2023-04-21T10:18:22.766Z,8.67
2023-04-21T10:21:04.292Z,9.90
2023-04-21T10:23:46.512Z,6.00
2023-04-21T10:26:23.061Z,6.67
2023-04-21T10:29:04.020Z,9.07
2023-04-21T10:31:35.761Z,6.27
2023-04-21T10:34:08.644Z,8.43
2023-04-21T10:36:42.619Z,8.43
2023-04-21T10:39:12.379Z,7.73
2023-04-21T10:41:39.515Z,7.40
2023-04-21T10:44:14.452Z,8.47
2023-04-21T10:46:49.604Z,7.80
2023-04-21T10:49:30.694Z,6.07
2023-04-21T10:52:17.589Z,8.00
2023-04-21T10:54:56.512Z,8.33
2023-04-21T10:57:26.939Z,14.93
2023-04-21T10:59:56.681Z,19.30
2023-04-21T11:02:25.088Z,13.33
2023-04-21T11:04:57.260Z,7.67
2023-04-21T11:07:25.402Z,6.80
2023-04-21T11:10:02.452Z,6.17
2023-04-21T11:12:31.568Z,6.53
2023-04-21T11:14:58.783Z,12.63
2023-04-21T11:17:26.575Z,14.73
2023-04-21T11:19:55.611Z,13.70
2023-04-21T11:22:25.142Z,14.10
2023-04-21T11:24:55.868Z,13.47
2023-04-21T11:27:23.564Z,8.70
2023-04-21T11:29:51.214Z,7.97
2023-04-21T11:32:19.559Z,6.57
2023-04-21T11:34:48.037Z,9.00
2023-04-21T11:37:20.891Z,9.20
2023-04-21T11:39:48.973Z,7.80
2023-04-21T11:42:23.320Z,7.00
2023-04-21T11:44:50.313Z,8.10
2023-04-21T11:47:37.657Z,9.00
2023-04-21T11:50:05.355Z,6.93
2023-04-21T11:52:36.562Z,8.63
2023-04-21T11:55:12.162Z,7.93
2023-04-21T11:57:41.115Z,8.50
2023-04-21T12:00:16.607Z,5.37
2023-04-21T12:02:44.354Z,6.73
2023-04-21T12:05:13.918Z,7.10
2023-04-21T12:07:44.108Z,6.50
2023-04-21T12:10:17.554Z,7.13
2023-04-21T12:12:46.263Z,7.20
2023-04-21T12:15:21.096Z,7.37
2023-04-21T12:17:50.964Z,5.83
2023-04-21T12:20:20.644Z,7.93
2023-04-21T12:22:48.415Z,7.23
2023-04-21T12:25:16.005Z,9.67
2023-04-21T12:27:54.193Z,10.40
2023-04-21T12:30:21.996Z,4.97
2023-04-21T12:32:49.294Z,5.97
2023-04-21T12:35:16.470Z,6.43
2023-04-21T12:37:45.093Z,9.30
2023-04-21T12:40:12.269Z,7.40
2023-04-21T12:42:40.774Z,5.63
2023-04-21T12:45:08.264Z,7.33
2023-04-21T12:47:37.698Z,5.43
2023-04-21T12:50:05.602Z,4.63
2023-04-21T12:52:32.560Z,8.87
2023-04-21T12:55:00.571Z,4.50
2023-04-21T12:57:27.628Z,5.10
2023-04-21T12:59:55.171Z,8.90
2023-04-21T13:02:22.729Z,5.07
2023-04-21T13:04:50.629Z,5.43
2023-04-21T13:07:22.888Z,5.17
2023-04-21T13:09:49.926Z,7.13
2023-04-21T13:12:17.816Z,6.93
2023-04-21T13:14:47.449Z,7.67
2023-04-21T13:17:17.017Z,5.63
2023-04-21T13:19:44.721Z,6.63
2023-04-21T13:22:11.844Z,4.00
2023-04-21T13:24:41.380Z,6.37
2023-04-21T13:27:08.617Z,7.53
2023-04-21T13:29:36.029Z,6.70
2023-04-21T13:32:05.395Z,7.27
2023-04-21T13:34:35.895Z,6.67
2023-04-21T13:37:04.909Z,5.27
2023-04-21T13:39:32.317Z,4.83
2023-04-21T13:42:00.584Z,8.00
2023-04-21T13:44:27.510Z,6.73
2023-04-21T13:46:58.775Z,4.23
2023-04-21T13:53:58.901Z,7.07
2023-04-21T13:56:26.247Z,4.97
2023-04-21T13:58:54.279Z,5.47
2023-04-21T14:01:21.989Z,6.37
2023-04-21T14:03:50.896Z,6.20
2023-04-21T14:06:20.209Z,7.00
2023-04-21T14:08:47.215Z,6.30
2023-04-21T14:11:14.899Z,7.10
2023-04-21T14:13:51.953Z,9.03
2023-04-21T14:16:29.018Z,5.47
2023-04-21T14:18:57.121Z,5.90
2023-04-21T14:21:24.299Z,4.67
2023-04-21T14:23:53.912Z,6.43
2023-04-21T14:26:22.455Z,5.50
2023-04-21T14:28:50.933Z,6.87
2023-04-21T14:31:19.679Z,4.43
2023-04-21T14:33:49.108Z,5.87
2023-04-21T14:36:16.267Z,7.37
2023-04-21T14:38:43.307Z,6.37
2023-04-21T14:41:10.465Z,5.43
2023-04-21T14:43:39.188Z,5.43
2023-04-21T14:46:07.536Z,6.07
2023-04-21T14:48:34.973Z,5.20
2023-04-21T14:51:02.125Z,4.57
2023-04-21T14:53:29.213Z,3.63
2023-04-21T14:55:56.278Z,5.63
2023-04-21T14:58:23.444Z,5.80
2023-04-21T15:00:51.274Z,7.23
2023-04-21T15:03:18.463Z,6.83
2023-04-21T15:05:48.368Z,4.80
2023-04-21T15:08:18.332Z,5.57
2023-04-21T15:10:45.457Z,6.13
2023-04-21T15:13:14.753Z,4.03
2023-04-21T15:15:41.700Z,5.47
2023-04-21T15:18:08.852Z,5.27
2023-04-21T15:20:44.579Z,5.47
2023-04-21T15:23:16.190Z,7.47
2023-04-21T15:25:44.717Z,8.33
2023-04-21T15:28:13.926Z,5.37
2023-04-21T15:30:41.513Z,7.03
2023-04-21T15:33:09.042Z,8.80
2023-04-21T15:35:36.432Z,8.13
2023-04-21T15:38:04.081Z,11.03
2023-04-21T15:40:31.063Z,5.50
2023-04-21T15:43:00.005Z,9.83
2023-04-21T15:45:28.546Z,7.63
2023-04-21T15:47:55.890Z,5.90
2023-04-21T15:50:22.867Z,6.67
2023-04-21T15:52:50.220Z,7.30
2023-04-21T15:55:17.659Z,6.10
2023-04-21T15:57:45.860Z,6.03
2023-04-21T16:00:16.321Z,7.03
2023-04-21T16:02:43.428Z,6.27
2023-04-21T16:05:10.874Z,6.70
2023-04-21T16:07:37.994Z,5.87
2023-04-21T16:10:05.855Z,6.00
2023-04-21T16:12:32.799Z,6.57
2023-04-21T16:15:09.365Z,5.87
2023-04-21T16:17:49.381Z,6.43
2023-04-21T16:20:16.605Z,5.77
2023-04-21T16:22:43.691Z,8.80
2023-04-21T16:25:17.097Z,6.60
2023-04-21T16:27:44.313Z,5.93
2023-04-21T16:30:12.175Z,5.23
2023-04-21T16:32:39.449Z,6.00
2023-04-21T16:35:10.065Z,6.23
2023-04-21T16:37:44.590Z,6.57
2023-04-21T16:40:12.982Z,6.47
2023-04-21T16:42:40.030Z,6.00
2023-04-21T16:45:09.029Z,4.90
2023-04-21T16:47:41.642Z,7.37
2023-04-21T16:50:10.363Z,6.93
2023-04-21T16:52:37.569Z,6.80
2023-04-21T16:55:06.448Z,6.37
2023-04-21T16:57:34.391Z,7.77
2023-04-21T17:00:01.870Z,6.80
2023-04-21T17:02:28.857Z,5.47
2023-04-21T17:04:55.987Z,5.13
2023-04-21T17:07:22.896Z,5.57
2023-04-21T17:09:51.274Z,5.43
2023-04-21T17:12:19.444Z,5.90
2023-04-21T17:14:46.926Z,7.00
2023-04-21T17:17:14.055Z,6.60
2023-04-21T17:19:41.312Z,6.90
2023-04-21T17:22:08.742Z,6.60
2023-04-21T17:24:51.806Z,6.20
2023-04-21T17:27:21.107Z,7.07
2023-04-21T17:29:48.502Z,6.07
2023-04-21T17:32:15.774Z,9.23
2023-04-21T17:34:44.480Z,7.67
2023-04-21T17:37:13.896Z,5.53
2023-04-21T17:39:41.095Z,8.10
2023-04-21T17:42:08.122Z,7.83
2023-04-21T17:44:35.560Z,7.80
2023-04-21T17:47:08.099Z,6.10
2023-04-21T17:49:37.095Z,6.67
2023-04-21T17:52:05.898Z,5.43
2023-04-21T17:54:34.960Z,6.90
2023-04-21T17:57:03.416Z,7.43
2023-04-21T17:59:30.951Z,6.30
2023-04-21T18:02:01.958Z,8.57
2023-04-21T18:04:31.091Z,7.43
2023-04-21T18:07:03.754Z,8.77
2023-04-21T18:09:31.681Z,7.17
2023-04-21T18:11:59.890Z,8.40
2023-04-21T18:14:27.949Z,6.60
2023-04-21T18:16:55.035Z,7.30
2023-04-21T18:19:22.152Z,7.07
2023-04-21T18:21:50.081Z,6.70
2023-04-21T18:24:17.266Z,7.10
2023-04-21T18:26:45.402Z,8.50
2023-04-21T18:29:12.530Z,10.63
2023-04-21T18:31:41.278Z,14.70
2023-04-21T18:34:09.136Z,18.87
2023-04-21T18:36:38.617Z,17.00
2023-04-21T18:39:07.868Z,18.80
2023-04-21T18:41:34.842Z,18.57
2023-04-21T18:44:06.842Z,15.90
2023-04-21T18:46:35.290Z,17.57
2023-04-21T18:49:02.658Z,17.57
2023-04-21T18:51:32.298Z,15.03
2023-04-21T18:54:00.594Z,13.53
2023-04-21T18:56:30.747Z,14.33
2023-04-21T18:58:59.918Z,11.73
2023-04-21T19:01:31.071Z,11.50
2023-04-21T19:03:59.637Z,11.30
2023-04-21T19:06:28.086Z,12.63
2023-04-21T19:08:57.373Z,12.17
2023-04-21T19:11:33.492Z,8.77
2023-04-21T19:14:01.829Z,9.03
2023-04-21T19:16:29.334Z,9.83
2023-04-21T19:18:59.628Z,9.70
2023-04-21T19:21:26.734Z,8.23
2023-04-21T19:23:55.046Z,10.93
2023-04-21T19:26:24.060Z,9.33
2023-04-21T19:28:53.715Z,9.10
2023-04-21T19:31:23.381Z,9.97
2023-04-21T19:33:50.979Z,10.23
2023-04-21T19:36:21.321Z,6.33
2023-04-21T19:38:49.109Z,7.93
2023-04-21T19:41:16.568Z,8.23
2023-04-21T19:43:45.947Z,6.93
2023-04-21T19:46:14.469Z,8.93
2023-04-21T19:48:42.857Z,8.30
2023-04-21T19:51:11.139Z,9.93
2023-04-21T19:53:38.605Z,7.03
2023-04-21T19:56:08.059Z,6.90
2023-04-21T19:58:40.745Z,8.80
2023-04-21T20:01:08.463Z,6.43
2023-04-21T20:03:37.369Z,8.53
2023-04-21T20:06:05.285Z,11.13
2023-04-21T20:08:32.729Z,8.77
2023-04-21T20:11:01.281Z,11.03
2023-04-21T20:13:31.546Z,13.07
2023-04-21T20:15:59.679Z,9.07
2023-04-21T20:18:27.773Z,11.80
2023-04-21T20:20:55.013Z,10.60
2023-04-21T20:23:22.006Z,11.57
2023-04-21T20:25:49.717Z,9.23
2023-04-21T20:28:18.336Z,12.67
2023-04-21T20:30:45.934Z,8.57
2023-04-21T20:33:18.311Z,12.43
2023-04-21T20:35:49.582Z,7.10
2023-04-21T20:38:19.210Z,11.83
2023-04-21T20:40:50.412Z,9.53
2023-04-21T20:43:18.974Z,7.90
2023-04-21T20:45:47.539Z,9.57
2023-04-21T20:48:14.662Z,9.90
2023-04-21T20:50:45.996Z,8.97
2023-04-21T20:53:13.841Z,8.67
2023-04-21T20:55:40.811Z,11.13
2023-04-21T20:58:07.916Z,13.77
2023-04-21T21:00:36.981Z,11.70
2023-04-21T21:03:05.675Z,10.43
2023-04-21T21:05:34.194Z,10.93
2023-04-21T21:08:02.416Z,10.00
2023-04-21T21:10:31.020Z,10.00
2023-04-21T21:12:59.612Z,10.73
2023-04-21T21:15:32.753Z,11.13
2023-04-21T21:18:00.241Z,11.53
2023-04-21T21:20:28.390Z,12.10
2023-04-21T21:22:55.476Z,13.70
2023-04-21T21:25:22.576Z,10.37
2023-04-21T21:27:50.123Z,9.83
2023-04-21T21:30:17.445Z,11.70
2023-04-21T21:32:46.615Z,9.27
2023-04-21T21:35:16.144Z,9.60
2023-04-21T21:37:43.156Z,10.27
2023-04-21T21:40:11.610Z,9.27
2023-04-21T21:42:39.609Z,11.50
2023-04-21T21:45:08.575Z,10.63
2023-04-21T21:47:40.304Z,10.03
2023-04-21T21:50:09.521Z,11.43
2023-04-21T21:52:36.587Z,10.37
2023-04-21T21:55:05.702Z,9.57
2023-04-21T21:57:32.824Z,10.57
2023-04-21T22:00:01.965Z,10.07
2023-04-21T22:02:32.187Z,11.10
2023-04-21T22:04:59.658Z,8.67
2023-04-21T22:07:27.024Z,11.20
2023-04-21T22:09:54.001Z,10.40
2023-04-21T22:12:20.939Z,12.40
2023-04-21T22:14:52.233Z,12.27
2023-04-21T22:17:20.281Z,9.60
2023-04-21T22:19:47.255Z,9.10
2023-04-21T22:22:14.280Z,12.30
2023-04-21T22:24:41.237Z,12.23
2023-04-21T22:27:09.289Z,12.23
2023-04-21T22:29:36.500Z,13.87
2023-04-21T22:32:05.946Z,12.43
2023-04-21T22:34:32.881Z,11.57
2023-04-21T22:37:02.247Z,11.30
2023-04-21T22:39:29.371Z,9.70
2023-04-21T22:41:58.304Z,11.30
2023-04-21T22:44:25.477Z,8.83
2023-04-21T22:46:52.471Z,8.83
2023-04-21T22:49:20.141Z,9.43
2023-04-21T22:51:47.389Z,9.70
2023-04-21T22:54:15.406Z,12.53
2023-04-21T22:56:42.493Z,12.83
2023-04-21T22:59:09.446Z,12.53
2023-04-21T23:01:36.643Z,10.57
2023-04-21T23:04:03.771Z,9.47
2023-04-21T23:06:32.820Z,10.37
2023-04-21T23:09:00.055Z,10.87
2023-04-21T23:11:27.285Z,12.33
2023-04-21T23:13:55.797Z,10.60
2023-04-21T23:16:24.027Z,13.30
2023-04-21T23:18:55.870Z,12.33
2023-04-21T23:21:26.756Z,9.03
2023-04-21T23:23:54.852Z,12.70
2023-04-21T23:26:24.156Z,11.77
2023-04-21T23:28:53.709Z,12.07
2023-04-21T23:31:24.573Z,11.17
2023-04-21T23:33:53.985Z,11.40
2023-04-21T23:36:20.932Z,10.83
2023-04-21T23:38:52.265Z,12.17
2023-04-21T23:41:30.036Z,12.07
2023-04-21T23:43:58.776Z,10.77
2023-04-21T23:46:30.714Z,10.07
2023-04-21T23:48:59.805Z,8.90
2023-04-21T23:51:28.264Z,11.07
2023-04-21T23:53:56.648Z,8.77
2023-04-21T23:56:28.138Z,12.73
2023-04-21T23:58:56.736Z,10.53
